Observations for CATANIA FONTANAROSA, Italy (LICC)

LICC 260450Z 25005KT 7000 NSC 21/19 Q1015   
LICC 260420Z 25005KT 7000 NSC 21/18 Q1015   
LICC 260350Z 23004KT CAVOK 21/19 Q1015  
LICC 260320Z 25003KT CAVOK 21/19 Q1015  
LICC 260250Z 26004KT CAVOK 21/19 Q1015  
LICC 260220Z 26003KT CAVOK 22/20 Q1015  
LICC 260150Z 22002KT CAVOK 22/19 Q1015  
LICC 260120Z 26003KT CAVOK 22/20 Q1015  
LICC 260050Z 24002KT CAVOK 22/20 Q1015  
LICC 260020Z 21003KT CAVOK 23/21 Q1015  
LICC 252350Z VRB02KT CAVOK 23/22 Q1015  
LICC 252250Z 29003KT CAVOK 25/24 Q1015  
LICC 252220Z 00000KT CAVOK 26/24 Q1015  
LICC 252150Z 18001KT CAVOK 26/25 Q1016  
LICC 252120Z VRB02KT CAVOK 26/24 Q1016  
LICC 252050Z 04003KT CAVOK 27/24 Q1016  
LICC 252020Z 09002KT CAVOK 27/24 Q1015  
LICC 251950Z 09004KT CAVOK 27/24 Q1015  
LICC 251920Z 09003KT CAVOK 27/24 Q1015  
LICC 251850Z VRB01KT 9999 FEW100 27/23 Q1015
LICC 251820Z 10003KT 9999 FEW100 27/24 Q1015
LICC 251750Z 08005KT CAVOK 28/23 Q1014  
LICC 251720Z 07005KT 9999 FEW100 28/23 Q1014
LICC 251650Z 09006KT CAVOK 28/23 Q1014  
LICC 251620Z 09006KT CAVOK 28/23 Q1014  
LICC 251550Z 11006KT CAVOK 29/22 Q1015  
LICC 251520Z 10010KT 9999 FEW030 29/22 Q1015
LICC 251450Z 11012KT 9999 FEW030 30/23 Q1014
LICC 251420Z 11012KT CAVOK 30/23 Q1014  
LICC 251350Z 10012KT 9999 FEW030 30/23 Q1014
LICC 251320Z 08013KT 9999 FEW030 30/23 Q1014
LICC 251250Z 08012KT 9999 FEW020TCU 31/22 Q1015 
LICC 251220Z 10011KT 9999 FEW020TCU 30/22 Q1014 
LICC 251150Z 09009KT 060V120 9999 FEW030 31/22 Q1015
LICC 251120Z 08009KT 030V120 9999 FEW030 30/23 Q1015
LICC 251050Z 09009KT 060V120 9999 FEW030 31/22 Q1015
LICC 251020Z 09009KT 9999 FEW030 31/21 Q1015
LICC 250950Z 09007KT 050V130 9999 FEW030 31/22 Q1016
LICC 250920Z 08008KT 050V110 CAVOK 30/22 Q1016  
LICC 250850Z 08008KT 050V120 CAVOK 30/23 Q1016  
LICC 250820Z 07006KT 030V120 CAVOK 30/22 Q1016  
LICC 250750Z VRB02KT CAVOK 30/21 Q1016  
LICC 250720Z 23006KT CAVOK 28/18 Q1016  
LICC 250650Z 23004KT CAVOK 26/18 Q1016  
LICC 250620Z 24005KT CAVOK 24/18 Q1016  
LICC 250550Z 25004KT CAVOK 22/18 Q1016  
LICC 250520Z 24004KT CAVOK 21/19 Q1016  
LICC 250450Z 26003KT CAVOK 21/18 Q1015  
LICC 250420Z 23003KT CAVOK 21/19 Q1015